Time;durP1;ratioP1;P1;durP2;ratioP2;P2;SDS_P1;SDS_P2;PMS_P1;PMS_P2;Temp;Humidity;BMP_temperature;BMP_pressure;BME280_temperature;BME280_humidity;BME280_pressure;Samples;Min_cycle;Max_cycle;Signal;HPM_P1;HPM_P2
2021/08/20 00:00:49;;;;;;;221.82;214.13;;;;;;;;;;4937262;28;20039;-80
2021/08/20 00:03:14;;;;;;;230.77;222.55;;;;;;;;;;4937007;29;20051;-80
2021/08/20 00:05:40;;;;;;;213.68;206.27;;;;;;;;;;4936941;29;20039;-80
2021/08/20 00:08:05;;;;;;;207.43;200.10;;;;;;;;;;4936917;29;20039;-80
2021/08/20 00:10:31;;;;;;;265.70;255.50;;;;;;;;;;4952866;29;20069;-80
2021/08/20 00:12:57;;;;;;;224.30;216.35;;;;;;;;;;4962843;28;20039;-80
2021/08/20 00:15:22;;;;;;;172.82;166.88;;;;;;;;;;4953259;28;20115;-80
2021/08/20 00:17:48;;;;;;;186.30;179.73;;;;;;;;;;4952707;28;20062;-79
2021/08/20 00:20:15;;;;;;;173.90;167.75;;;;;;;;;;4937135;28;20035;-80
2021/08/20 00:22:41;;;;;;;189.05;182.43;;;;;;;;;;4936766;28;20055;-79
2021/08/20 00:25:07;;;;;;;159.25;153.85;;;;;;;;;;4952864;29;20032;-79
2021/08/20 00:27:33;;;;;;;210.63;203.25;;;;;;;;;;4952606;28;20074;-80
2021/08/20 00:29:58;;;;;;;168.10;162.25;;;;;;;;;;4949527;28;20075;-79
2021/08/20 00:32:23;;;;;;;197.55;190.88;;;;;;;;;;4936148;29;20054;-80
2021/08/20 00:34:49;;;;;;;178.60;172.27;;;;;;;;;;4936569;28;20039;-80
2021/08/20 00:37:14;;;;;;;193.30;186.80;;;;;;;;;;4952110;28;20047;-80
2021/08/20 00:39:41;;;;;;;167.68;161.80;;;;;;;;;;4949305;28;20061;-80
2021/08/20 00:42:07;;;;;;;171.43;165.40;;;;;;;;;;4952899;28;20038;-80
2021/08/20 00:44:32;;;;;;;157.93;152.52;;;;;;;;;;4921096;29;20061;-79
2021/08/20 00:46:58;;;;;;;190.85;184.13;;;;;;;;;;4936428;29;20043;-79
2021/08/20 00:49:23;;;;;;;148.07;143.05;;;;;;;;;;4917294;29;20043;-79
2021/08/20 00:51:49;;;;;;;159.10;153.70;;;;;;;;;;4917494;29;20044;-80
2021/08/20 00:54:17;;;;;;;125.43;121.20;;;;;;;;;;4933356;29;20067;-80
2021/08/20 00:56:44;;;;;;;189.35;182.68;;;;;;;;;;4930634;29;20039;-79
2021/08/20 00:59:09;;;;;;;158.32;152.77;;;;;;;;;;4936428;29;20065;-80
2021/08/20 01:01:37;;;;;;;172.55;166.57;;;;;;;;;;4937426;28;20461;-80
2021/08/20 01:04:02;;;;;;;151.02;145.75;;;;;;;;;;4920166;29;20045;-79
2021/08/20 01:06:29;;;;;;;152.27;147.05;;;;;;;;;;4917054;29;20447;-79
2021/08/20 01:08:55;;;;;;;173.90;167.57;;;;;;;;;;4917148;29;20063;-80
2021/08/20 01:11:20;;;;;;;163.55;157.70;;;;;;;;;;4917194;29;20521;-80
2021/08/20 01:13:46;;;;;;;192.15;185.38;;;;;;;;;;4933749;29;20051;-80
2021/08/20 01:16:11;;;;;;;180.35;174.02;;;;;;;;;;4951268;28;20045;-80
2021/08/20 01:18:38;;;;;;;203.90;196.77;;;;;;;;;;4940216;29;20031;-80
2021/08/20 01:21:08;;;;;;;168.45;162.60;;;;;;;;;;4955565;29;20067;-80
2021/08/20 01:23:34;;;;;;;189.75;183.20;;;;;;;;;;4955811;29;20043;-80
2021/08/20 01:26:00;;;;;;;170.43;164.43;;;;;;;;;;4940108;29;20035;-80
2021/08/20 01:28:26;;;;;;;143.85;138.82;;;;;;;;;;4956020;28;20126;-80
2021/08/20 01:30:57;;;;;;;166.75;160.98;;;;;;;;;;4955547;28;20043;-80
2021/08/20 01:33:23;;;;;;;214.73;207.13;;;;;;;;;;4939832;28;20458;-80
2021/08/20 01:35:48;;;;;;;160.45;154.88;;;;;;;;;;4955310;29;20121;-80
2021/08/20 01:38:14;;;;;;;171.68;165.68;;;;;;;;;;4955906;28;20058;-80
2021/08/20 01:40:39;;;;;;;153.45;148.05;;;;;;;;;;4955478;28;20087;-80
2021/08/20 01:43:05;;;;;;;176.65;170.50;;;;;;;;;;4940232;29;20039;-80
2021/08/20 01:45:30;;;;;;;205.65;198.23;;;;;;;;;;4955713;28;20042;-81
2021/08/20 01:47:56;;;;;;;164.13;158.27;;;;;;;;;;4916059;29;20044;-80
2021/08/20 01:50:21;;;;;;;184.80;178.30;;;;;;;;;;4942376;29;20066;-80
2021/08/20 01:52:47;;;;;;;161.60;156.05;;;;;;;;;;4923858;29;20085;-80
2021/08/20 01:55:12;;;;;;;206.70;199.50;;;;;;;;;;4955297;28;20061;-81
2021/08/20 01:57:41;;;;;;;179.43;173.10;;;;;;;;;;4939436;28;20039;-80
2021/08/20 02:00:07;;;;;;;159.93;154.27;;;;;;;;;;4951961;28;20040;-80
2021/08/20 02:02:33;;;;;;;158.35;152.95;;;;;;;;;;4953455;29;20554;-80
2021/08/20 02:04:58;;;;;;;130.02;125.55;;;;;;;;;;4955166;28;20100;-81
2021/08/20 02:07:24;;;;;;;197.25;190.43;;;;;;;;;;4951888;28;20051;-80
2021/08/20 02:09:49;;;;;;;180.38;174.05;;;;;;;;;;4936283;29;20086;-80
2021/08/20 02:12:15;;;;;;;181.05;174.70;;;;;;;;;;4932331;28;20047;-80
2021/08/20 02:14:41;;;;;;;124.68;120.38;;;;;;;;;;4952343;28;20036;-81
2021/08/20 02:17:06;;;;;;;170.68;164.80;;;;;;;;;;4928650;28;20043;-80
2021/08/20 02:19:33;;;;;;;74.60;72.00;;;;;;;;;;4955206;28;20049;-80
2021/08/20 02:21:58;;;;;;;105.07;101.43;;;;;;;;;;4948893;28;20039;-80
2021/08/20 02:24:24;;;;;;;144.20;139.27;;;;;;;;;;4955059;28;20118;-80
2021/08/20 02:26:49;;;;;;;186.00;179.40;;;;;;;;;;4922950;29;20047;-80
2021/08/20 02:29:15;;;;;;;129.13;124.63;;;;;;;;;;4921943;29;20043;-80
2021/08/20 02:31:40;;;;;;;179.15;172.85;;;;;;;;;;4922730;29;20051;-80
2021/08/20 02:34:06;;;;;;;149.50;144.30;;;;;;;;;;4939032;29;20043;-80
2021/08/20 02:36:31;;;;;;;210.00;202.73;;;;;;;;;;4938323;29;20043;-80
2021/08/20 02:38:57;;;;;;;103.70;100.18;;;;;;;;;;4954755;28;20042;-80
2021/08/20 02:41:24;;;;;;;211.60;204.18;;;;;;;;;;4951540;28;20040;-80
2021/08/20 02:43:50;;;;;;;165.35;159.52;;;;;;;;;;4939340;29;20553;-80
2021/08/20 02:46:15;;;;;;;150.57;145.48;;;;;;;;;;4954204;28;20035;-81
2021/08/20 02:48:42;;;;;;;191.57;184.80;;;;;;;;;;4940838;28;20106;-81
2021/08/20 02:51:08;;;;;;;191.40;184.68;;;;;;;;;;4925453;28;20031;-80
2021/08/20 02:53:34;;;;;;;140.88;136.00;;;;;;;;;;4950839;28;20036;-80
2021/08/20 02:55:59;;;;;;;181.23;174.82;;;;;;;;;;4956038;28;20046;-80
2021/08/20 02:58:25;;;;;;;140.40;135.45;;;;;;;;;;4954741;28;20051;-80
2021/08/20 03:00:50;;;;;;;166.90;161.13;;;;;;;;;;4953715;28;20126;-81
2021/08/20 03:03:16;;;;;;;155.77;150.38;;;;;;;;;;4938723;29;20122;-80
2021/08/20 03:05:42;;;;;;;108.57;104.93;;;;;;;;;;4950784;28;20088;-80
2021/08/20 03:08:09;;;;;;;128.90;124.57;;;;;;;;;;4951130;28;20054;-80
2021/08/20 03:10:35;;;;;;;103.90;100.28;;;;;;;;;;4969179;28;20032;-81
2021/08/20 03:13:00;;;;;;;125.15;120.85;;;;;;;;;;4938615;28;20047;-80
2021/08/20 03:15:26;;;;;;;165.85;160.23;;;;;;;;;;4937721;29;20372;-80
2021/08/20 03:17:51;;;;;;;150.68;145.40;;;;;;;;;;4938343;29;20046;-80
2021/08/20 03:20:17;;;;;;;126.13;121.90;;;;;;;;;;4953865;29;20102;-80
2021/08/20 03:22:45;;;;;;;138.02;133.32;;;;;;;;;;4938361;29;20050;-81
2021/08/20 03:25:11;;;;;;;187.55;181.10;;;;;;;;;;4953250;28;20110;-80
2021/08/20 03:27:36;;;;;;;125.45;121.10;;;;;;;;;;4954167;28;20502;-80
2021/08/20 03:30:02;;;;;;;190.82;184.13;;;;;;;;;;4953066;28;20046;-80
2021/08/20 03:32:28;;;;;;;140.85;136.00;;;;;;;;;;4954292;28;20035;-80
2021/08/20 03:34:54;;;;;;;149.93;144.70;;;;;;;;;;4937925;29;20039;-80
2021/08/20 03:37:20;;;;;;;117.05;113.07;;;;;;;;;;4953167;28;20046;-80
2021/08/20 03:39:46;;;;;;;182.98;176.48;;;;;;;;;;4953313;28;20151;-80
2021/08/20 03:42:11;;;;;;;143.95;138.88;;;;;;;;;;4934246;28;20067;-80
2021/08/20 03:44:37;;;;;;;155.32;149.90;;;;;;;;;;4933994;29;20032;-81
2021/08/20 03:47:03;;;;;;;159.07;153.60;;;;;;;;;;4953271;29;20046;-80
2021/08/20 03:49:28;;;;;;;150.25;145.18;;;;;;;;;;4953648;29;20065;-80
2021/08/20 03:51:54;;;;;;;140.93;136.18;;;;;;;;;;4953546;28;20043;-80
2021/08/20 03:54:19;;;;;;;134.40;129.57;;;;;;;;;;4937302;28;20039;-80
2021/08/20 03:56:45;;;;;;;162.20;156.57;;;;;;;;;;4952995;28;20114;-80
2021/08/20 03:59:12;;;;;;;143.02;138.10;;;;;;;;;;4952593;28;20401;-80
2021/08/20 04:01:38;;;;;;;110.85;107.05;;;;;;;;;;4953466;28;20073;-80
2021/08/20 04:04:03;;;;;;;140.80;135.88;;;;;;;;;;4953571;28;20530;-80
2021/08/20 04:06:29;;;;;;;151.75;146.48;;;;;;;;;;4949267;28;20036;-80
2021/08/20 04:08:55;;;;;;;141.43;136.63;;;;;;;;;;4960627;28;20094;-80
2021/08/20 04:11:20;;;;;;;124.57;120.35;;;;;;;;;;4953115;28;20043;-80
2021/08/20 04:13:46;;;;;;;130.60;126.00;;;;;;;;;;4952726;28;20055;-80
2021/08/20 04:16:11;;;;;;;155.02;149.70;;;;;;;;;;4953037;28;20046;-80
2021/08/20 04:18:40;;;;;;;43.60;42.03;;;;;;;;;;4952998;29;20048;-80
2021/08/20 04:21:07;;;;;;;153.95;148.65;;;;;;;;;;4921433;29;20046;-80
2021/08/20 04:23:33;;;;;;;131.30;126.88;;;;;;;;;;4953077;28;20035;-80
2021/08/20 04:25:58;;;;;;;137.98;133.07;;;;;;;;;;4920545;29;20043;-80
2021/08/20 04:28:25;;;;;;;159.02;153.48;;;;;;;;;;4952212;28;20043;-80
2021/08/20 04:30:50;;;;;;;170.25;164.27;;;;;;;;;;4935154;29;20054;-80
2021/08/20 04:33:16;;;;;;;137.80;133.02;;;;;;;;;;4936477;29;20039;-80
2021/08/20 04:35:43;;;;;;;135.25;130.57;;;;;;;;;;4952678;28;20043;-80
2021/08/20 04:38:09;;;;;;;95.63;92.30;;;;;;;;;;4952449;29;20031;-80
2021/08/20 04:40:34;;;;;;;124.93;120.55;;;;;;;;;;4952679;28;20069;-80
2021/08/20 04:43:00;;;;;;;156.75;151.32;;;;;;;;;;4936540;28;20114;-80
2021/08/20 04:45:25;;;;;;;156.90;151.45;;;;;;;;;;4936783;28;20178;-80
2021/08/20 04:47:51;;;;;;;160.93;155.43;;;;;;;;;;4951876;28;20105;-80
2021/08/20 04:50:18;;;;;;;168.70;162.95;;;;;;;;;;4940355;29;20062;-81
2021/08/20 04:52:43;;;;;;;133.20;128.65;;;;;;;;;;4935968;28;20035;-81
2021/08/20 04:55:09;;;;;;;110.30;106.40;;;;;;;;;;4923739;28;20035;-80
2021/08/20 04:57:34;;;;;;;133.20;128.55;;;;;;;;;;4949474;28;20036;-81
2021/08/20 05:00:00;;;;;;;122.20;118.03;;;;;;;;;;4950833;29;20039;-80
2021/08/20 05:02:27;;;;;;;131.77;127.38;;;;;;;;;;4952546;28;20046;-80
2021/08/20 05:04:52;;;;;;;132.32;127.78;;;;;;;;;;4952693;28;20047;-80
2021/08/20 05:07:18;;;;;;;146.25;141.25;;;;;;;;;;4951980;28;20118;-80
2021/08/20 05:09:43;;;;;;;132.48;127.57;;;;;;;;;;4951937;28;20065;-81
2021/08/20 05:12:09;;;;;;;131.02;126.55;;;;;;;;;;4934366;28;20035;-80
2021/08/20 05:14:35;;;;;;;144.50;139.65;;;;;;;;;;4960007;28;20114;-81
2021/08/20 05:17:00;;;;;;;142.82;137.95;;;;;;;;;;4952204;28;20057;-81
2021/08/20 05:19:26;;;;;;;135.20;130.50;;;;;;;;;;4918770;29;20103;-81
2021/08/20 05:21:51;;;;;;;126.45;122.15;;;;;;;;;;4917311;29;20040;-81
2021/08/20 05:24:17;;;;;;;154.52;149.20;;;;;;;;;;4916369;29;20036;-81
2021/08/20 05:26:43;;;;;;;132.57;128.13;;;;;;;;;;4939145;28;20039;-82
2021/08/20 05:29:08;;;;;;;146.52;141.50;;;;;;;;;;4931681;28;20032;-81
2021/08/20 05:31:33;;;;;;;118.85;114.88;;;;;;;;;;4917404;29;20043;-82
2021/08/20 05:33:59;;;;;;;147.50;142.38;;;;;;;;;;4949034;29;20035;-81
2021/08/20 05:36:24;;;;;;;128.55;124.20;;;;;;;;;;4964535;28;20046;-81
2021/08/20 05:38:50;;;;;;;130.80;126.35;;;;;;;;;;4932806;28;20032;-82
2021/08/20 05:41:15;;;;;;;148.05;143.15;;;;;;;;;;4947626;29;20040;-82
2021/08/20 05:43:41;;;;;;;59.28;57.22;;;;;;;;;;4948698;28;20051;-82
2021/08/20 05:46:06;;;;;;;118.85;114.80;;;;;;;;;;4917212;29;20090;-83
2021/08/20 05:48:32;;;;;;;114.68;110.82;;;;;;;;;;4936118;29;20038;-83
2021/08/20 05:50:58;;;;;;;77.22;74.55;;;;;;;;;;4935748;29;20031;-83
2021/08/20 05:53:24;;;;;;;125.38;121.15;;;;;;;;;;4951670;28;20043;-84
2021/08/20 05:55:50;;;;;;;96.10;92.85;;;;;;;;;;4932987;28;20049;-84
2021/08/20 05:58:16;;;;;;;154.50;149.25;;;;;;;;;;4917202;29;20418;-83
2021/08/20 06:00:42;;;;;;;61.50;59.42;;;;;;;;;;4932986;28;20043;-83
2021/08/20 06:03:07;;;;;;;109.93;106.18;;;;;;;;;;4934104;28;20032;-82
2021/08/20 06:05:33;;;;;;;127.78;123.50;;;;;;;;;;4920416;29;20031;-83
2021/08/20 06:08:00;;;;;;;73.70;71.20;;;;;;;;;;4938869;28;20032;-82
2021/08/20 06:10:26;;;;;;;95.88;92.60;;;;;;;;;;4954754;28;20042;-82
2021/08/20 06:12:51;;;;;;;145.35;140.45;;;;;;;;;;4923503;29;20204;-83
2021/08/20 06:15:17;;;;;;;111.88;107.93;;;;;;;;;;4923597;29;20062;-83
2021/08/20 06:17:42;;;;;;;116.85;112.88;;;;;;;;;;4951884;28;20036;-83
2021/08/20 06:20:09;;;;;;;165.35;159.68;;;;;;;;;;4938999;28;20039;-83
2021/08/20 06:22:35;;;;;;;144.43;139.43;;;;;;;;;;4923500;29;20409;-83
2021/08/20 06:25:01;;;;;;;79.18;76.53;;;;;;;;;;4954850;28;20097;-83
2021/08/20 06:27:26;;;;;;;143.85;138.95;;;;;;;;;;4954688;28;20067;-83
2021/08/20 06:29:52;;;;;;;164.65;159.05;;;;;;;;;;4955106;28;20043;-82
2021/08/20 06:32:17;;;;;;;147.35;142.27;;;;;;;;;;4936840;28;20084;-82
2021/08/20 06:34:43;;;;;;;148.05;142.88;;;;;;;;;;4919547;29;20502;-81
2021/08/20 06:37:08;;;;;;;110.95;107.20;;;;;;;;;;4949336;29;20043;-82
2021/08/20 06:39:34;;;;;;;125.57;121.22;;;;;;;;;;4950741;28;20032;-81
2021/08/20 06:42:00;;;;;;;102.57;99.03;;;;;;;;;;4938089;28;20466;-81
2021/08/20 06:44:26;;;;;;;38.38;36.85;;;;;;;;;;4939268;29;20434;-81
2021/08/20 06:46:51;;;;;;;156.15;150.90;;;;;;;;;;4954820;28;20410;-81
2021/08/20 06:49:17;;;;;;;160.63;155.02;;;;;;;;;;4954502;28;20035;-82
2021/08/20 06:51:42;;;;;;;144.40;139.45;;;;;;;;;;4953711;28;20027;-81
2021/08/20 06:54:08;;;;;;;179.65;173.15;;;;;;;;;;4952934;28;20425;-82
2021/08/20 06:56:33;;;;;;;174.10;167.95;;;;;;;;;;4954246;29;20066;-83
2021/08/20 06:58:59;;;;;;;170.07;164.13;;;;;;;;;;4921785;29;20043;-81
2021/08/20 07:01:27;;;;;;;118.35;114.28;;;;;;;;;;4954442;28;20569;-81
2021/08/20 07:03:54;;;;;;;122.82;118.75;;;;;;;;;;4953467;28;20047;-81
2021/08/20 07:06:20;;;;;;;163.90;158.20;;;;;;;;;;4935440;28;20118;-81
2021/08/20 07:08:49;;;;;;;154.88;149.35;;;;;;;;;;4932255;28;20262;-83
2021/08/20 07:11:20;;;;;;;156.63;151.15;;;;;;;;;;4934702;28;20517;-83
2021/08/20 07:13:46;;;;;;;145.70;140.65;;;;;;;;;;4954429;28;20053;-82
2021/08/20 07:16:11;;;;;;;167.30;161.48;;;;;;;;;;4950869;28;20035;-82
2021/08/20 07:18:38;;;;;;;175.13;169.18;;;;;;;;;;4938681;28;20118;-81
2021/08/20 07:21:04;;;;;;;195.77;188.88;;;;;;;;;;4926916;29;20040;-82
2021/08/20 07:23:29;;;;;;;195.05;188.32;;;;;;;;;;4903131;29;20091;-82
2021/08/20 07:26:01;;;;;;;95.95;92.65;;;;;;;;;;4937546;29;20046;-81
2021/08/20 07:28:27;;;;;;;186.77;180.48;;;;;;;;;;4953409;28;20071;-79
2021/08/20 07:30:53;;;;;;;189.25;182.82;;;;;;;;;;4953930;28;20114;-80
2021/08/20 07:33:19;;;;;;;178.35;171.95;;;;;;;;;;4950696;28;20048;-79
2021/08/20 07:35:44;;;;;;;209.80;202.48;;;;;;;;;;4918693;29;20035;-82
2021/08/20 07:38:11;;;;;;;250.80;241.98;;;;;;;;;;4951773;28;20044;-83
2021/08/20 07:40:36;;;;;;;177.32;171.05;;;;;;;;;;4953955;28;20045;-82
2021/08/20 07:43:02;;;;;;;62.53;59.58;;;;;;;;;;4942574;29;20035;-84
2021/08/20 07:45:27;;;;;;;178.90;172.48;;;;;;;;;;4903414;29;20046;-84
2021/08/20 07:47:53;;;;;;;143.45;138.05;;;;;;;;;;4926222;29;20031;-83
2021/08/20 07:50:19;;;;;;;175.10;168.77;;;;;;;;;;4937962;29;20031;-83
2021/08/20 07:52:45;;;;;;;176.75;170.02;;;;;;;;;;4937391;28;20039;-83
2021/08/20 07:55:11;;;;;;;160.00;154.48;;;;;;;;;;4937453;28;20031;-84
2021/08/20 07:58:04;;;;;;;135.60;130.90;;;;;;;;;;4921539;29;20093;-84
2021/08/20 08:00:30;;;;;;;184.07;177.57;;;;;;;;;;4953880;28;20058;-85
2021/08/20 08:02:56;;;;;;;167.32;161.20;;;;;;;;;;4953645;28;20046;-85
2021/08/20 08:05:21;;;;;;;217.20;207.27;;;;;;;;;;4953244;28;20035;-82
2021/08/20 08:07:48;;;;;;;119.40;115.03;;;;;;;;;;4933970;28;20398;-84
2021/08/20 08:10:14;;;;;;;195.20;188.02;;;;;;;;;;4953150;28;20035;-84
2021/08/20 08:12:39;;;;;;;180.05;173.57;;;;;;;;;;4952923;28;20031;-84
2021/08/20 08:15:06;;;;;;;217.80;210.23;;;;;;;;;;4949879;28;20035;-83
2021/08/20 08:17:32;;;;;;;161.88;155.80;;;;;;;;;;4933889;28;20036;-83
2021/08/20 08:19:58;;;;;;;15.02;13.95;;;;;;;;;;4933879;28;20524;-83
2021/08/20 08:22:23;;;;;;;136.68;131.30;;;;;;;;;;4949601;29;20047;-84
2021/08/20 08:24:50;;;;;;;126.38;121.78;;;;;;;;;;4935452;28;20529;-84
2021/08/20 08:27:15;;;;;;;159.85;154.00;;;;;;;;;;4949535;28;20082;-85
2021/08/20 08:29:42;;;;;;;133.30;128.40;;;;;;;;;;4934031;29;20044;-84
2021/08/20 08:32:07;;;;;;;179.07;172.35;;;;;;;;;;4933549;28;20032;-84
2021/08/20 08:34:33;;;;;;;113.30;109.00;;;;;;;;;;4933546;29;20039;-85
2021/08/20 08:36:59;;;;;;;156.70;150.80;;;;;;;;;;4936815;29;20039;-84
2021/08/20 08:39:25;;;;;;;159.65;153.93;;;;;;;;;;4952704;28;20070;-84
2021/08/20 08:41:51;;;;;;;134.70;129.65;;;;;;;;;;4937021;29;20039;-85
2021/08/20 08:44:16;;;;;;;181.90;174.25;;;;;;;;;;4952954;29;20053;-85
2021/08/20 08:46:42;;;;;;;123.53;118.70;;;;;;;;;;4952609;28;20047;-78
2021/08/20 08:49:07;;;;;;;264.23;253.80;;;;;;;;;;4952178;28;20035;-80
2021/08/20 08:51:33;;;;;;;152.70;146.88;;;;;;;;;;4949336;28;20043;-78
2021/08/20 08:53:58;;;;;;;148.52;142.57;;;;;;;;;;4949410;29;20065;-79
2021/08/20 08:56:24;;;;;;;208.23;200.48;;;;;;;;;;4967028;28;20046;-79
2021/08/20 08:58:49;;;;;;;168.25;162.32;;;;;;;;;;4935791;29;20494;-79
2021/08/20 09:01:28;;;;;;;144.63;139.23;;;;;;;;;;4952367;28;20058;-77
2021/08/20 09:04:14;;;;;;;259.20;249.23;;;;;;;;;;4951936;28;20035;-77
2021/08/20 09:06:41;;;;;;;212.00;203.98;;;;;;;;;;4952108;28;20109;-76
2021/08/20 09:09:08;;;;;;;234.88;225.77;;;;;;;;;;4952099;28;20039;-79
2021/08/20 09:11:34;;;;;;;178.35;171.50;;;;;;;;;;4951886;28;20517;-78
2021/08/20 09:14:00;;;;;;;245.38;235.55;;;;;;;;;;4952577;28;20031;-80
2021/08/20 09:16:34;;;;;;;193.50;185.75;;;;;;;;;;4936859;29;20051;-82
2021/08/20 09:19:10;;;;;;;270.83;260.65;;;;;;;;;;4944518;28;20534;-79
2021/08/20 09:21:35;;;;;;;149.77;143.68;;;;;;;;;;4968105;28;20040;-77
2021/08/20 09:24:01;;;;;;;190.80;182.70;;;;;;;;;;4951870;29;20130;-77
2021/08/20 09:26:26;;;;;;;116.35;111.18;;;;;;;;;;4936116;29;20059;-77
2021/08/20 09:28:53;;;;;;;183.90;176.95;;;;;;;;;;4936033;29;20032;-78
2021/08/20 09:31:22;;;;;;;127.88;123.22;;;;;;;;;;4936042;29;20035;-78
2021/08/20 09:33:49;;;;;;;163.43;157.35;;;;;;;;;;4951319;28;20039;-78
2021/08/20 09:36:19;;;;;;;243.68;234.70;;;;;;;;;;4951440;28;20461;-78
2021/08/20 09:38:50;;;;;;;238.55;229.50;;;;;;;;;;4954627;28;20038;-78
2021/08/20 09:41:24;;;;;;;113.00;108.55;;;;;;;;;;4940195;29;20086;-78
2021/08/20 09:43:52;;;;;;;173.05;166.80;;;;;;;;;;4938216;28;20035;-78
2021/08/20 09:46:19;;;;;;;164.80;159.00;;;;;;;;;;4952655;28;20042;-78
2021/08/20 09:48:46;;;;;;;214.43;206.30;;;;;;;;;;4955592;28;20031;-78
2021/08/20 09:51:34;;;;;;;162.93;156.73;;;;;;;;;;4971879;28;20039;-79
2021/08/20 09:54:01;;;;;;;165.07;158.88;;;;;;;;;;4955741;28;20031;-79
2021/08/20 09:56:27;;;;;;;128.75;124.00;;;;;;;;;;4923693;29;20455;-80
2021/08/20 09:58:53;;;;;;;169.80;163.55;;;;;;;;;;4939642;28;20045;-79
2021/08/20 10:01:19;;;;;;;175.30;168.25;;;;;;;;;;4955505;29;20042;-79
2021/08/20 10:03:44;;;;;;;206.50;199.18;;;;;;;;;;4955346;28;20405;-80
2021/08/20 10:06:10;;;;;;;216.10;208.15;;;;;;;;;;4939467;29;20035;-80
2021/08/20 10:08:35;;;;;;;85.95;82.88;;;;;;;;;;4952632;28;20511;-80
2021/08/20 10:11:01;;;;;;;237.65;228.90;;;;;;;;;;4952404;28;20075;-79
2021/08/20 10:13:27;;;;;;;264.02;254.52;;;;;;;;;;4935859;28;20031;-79
2021/08/20 10:15:55;;;;;;;175.50;168.77;;;;;;;;;;4935216;29;20040;-79
2021/08/20 10:18:21;;;;;;;279.35;268.77;;;;;;;;;;4935864;29;20031;-80
2021/08/20 10:20:46;;;;;;;196.80;189.52;;;;;;;;;;4934875;29;20525;-79
2021/08/20 10:23:15;;;;;;;202.32;194.65;;;;;;;;;;4934655;28;20031;-80
2021/08/20 10:25:40;;;;;;;245.85;236.73;;;;;;;;;;4936495;29;20395;-79
2021/08/20 10:28:06;;;;;;;204.32;196.32;;;;;;;;;;4951808;28;20051;-79
2021/08/20 10:30:32;;;;;;;255.20;245.77;;;;;;;;;;4935935;28;20051;-79
2021/08/20 10:33:02;;;;;;;244.63;235.43;;;;;;;;;;4936510;29;20072;-80
2021/08/20 10:35:56;;;;;;;147.48;142.23;;;;;;;;;;4935940;28;20038;-79
2021/08/20 10:38:27;;;;;;;120.30;115.82;;;;;;;;;;4935731;28;20043;-80
2021/08/20 10:41:07;;;;;;;176.77;170.05;;;;;;;;;;4935793;29;20070;-79
2021/08/20 10:43:58;;;;;;;242.38;233.50;;;;;;;;;;4966189;28;20039;-79
2021/08/20 10:46:33;;;;;;;187.80;180.82;;;;;;;;;;4954928;28;20525;-80
2021/08/20 10:49:10;;;;;;;98.22;94.63;;;;;;;;;;4953194;28;20120;-79
2021/08/20 10:51:51;;;;;;;75.78;72.88;;;;;;;;;;4968302;28;20046;-78
2021/08/20 10:54:17;;;;;;;99.75;95.97;;;;;;;;;;4969594;28;20047;-79
2021/08/20 10:56:42;;;;;;;151.18;145.73;;;;;;;;;;4954759;28;20532;-79
2021/08/20 10:59:08;;;;;;;131.55;126.45;;;;;;;;;;4955373;28;20035;-79
2021/08/20 11:01:33;;;;;;;71.13;68.57;;;;;;;;;;4957248;28;20039;-79
2021/08/20 11:03:59;;;;;;;141.38;136.02;;;;;;;;;;4936283;28;20046;-78
2021/08/20 11:06:51;;;;;;;88.70;85.30;;;;;;;;;;4921634;29;20043;-78
2021/08/20 11:09:30;;;;;;;104.35;100.55;;;;;;;;;;4938250;29;20131;-78
2021/08/20 11:11:56;;;;;;;107.63;103.93;;;;;;;;;;4953803;28;20043;-79
2021/08/20 11:14:28;;;;;;;109.50;105.57;;;;;;;;;;4922044;29;20569;-79
2021/08/20 11:16:54;;;;;;;64.18;61.88;;;;;;;;;;4923063;29;20039;-79
2021/08/20 11:19:45;;;;;;;40.08;38.47;;;;;;;;;;4921906;28;20549;-79
2021/08/20 11:22:21;;;;;;;79.10;76.07;;;;;;;;;;4941390;28;20036;-78
2021/08/20 11:25:07;;;;;;;72.60;69.97;;;;;;;;;;4935014;29;20036;-78
2021/08/20 11:27:33;;;;;;;93.38;89.97;;;;;;;;;;4919045;29;20052;-78
2021/08/20 11:29:58;;;;;;;95.03;91.55;;;;;;;;;;4952272;28;20043;-78
2021/08/20 11:32:24;;;;;;;69.88;67.32;;;;;;;;;;4954070;28;20035;-78
2021/08/20 11:34:53;;;;;;;125.10;120.60;;;;;;;;;;4953739;29;20043;-79
2021/08/20 11:37:18;;;;;;;97.57;94.00;;;;;;;;;;4953789;28;20046;-79
2021/08/20 11:40:02;;;;;;;75.68;72.72;;;;;;;;;;4953403;29;20040;-79
2021/08/20 11:42:28;;;;;;;103.82;99.93;;;;;;;;;;4937554;29;20032;-79
2021/08/20 11:44:53;;;;;;;49.28;47.42;;;;;;;;;;4937636;29;20121;-78
2021/08/20 11:47:18;;;;;;;123.20;118.47;;;;;;;;;;4935949;28;20031;-77
2021/08/20 11:49:44;;;;;;;91.78;88.53;;;;;;;;;;4921426;29;20027;-78
2021/08/20 11:52:11;;;;;;;114.82;110.80;;;;;;;;;;4937526;29;20031;-83
2021/08/20 11:54:38;;;;;;;77.03;74.18;;;;;;;;;;4937505;28;20050;-80
2021/08/20 11:57:04;;;;;;;48.45;46.55;;;;;;;;;;4928639;28;20059;-81
2021/08/20 11:59:30;;;;;;;85.28;82.22;;;;;;;;;;4940219;28;20090;-80
2021/08/20 12:01:56;;;;;;;114.15;110.15;;;;;;;;;;4936786;28;20043;-80
2021/08/20 12:04:22;;;;;;;76.57;73.88;;;;;;;;;;4936632;28;20094;-80
2021/08/20 12:06:48;;;;;;;85.78;82.50;;;;;;;;;;4936478;28;20469;-80
2021/08/20 12:09:18;;;;;;;82.07;79.25;;;;;;;;;;4921204;29;20047;-79
2021/08/20 12:11:54;;;;;;;75.13;72.13;;;;;;;;;;4936662;29;20031;-79
2021/08/20 12:14:24;;;;;;;85.05;81.90;;;;;;;;;;4936172;28;20047;-80
2021/08/20 12:16:51;;;;;;;65.60;63.17;;;;;;;;;;4952146;28;20027;-79
2021/08/20 12:19:17;;;;;;;102.93;99.10;;;;;;;;;;4947412;28;20046;-83
2021/08/20 12:21:47;;;;;;;78.95;76.03;;;;;;;;;;4947409;28;20526;-82
2021/08/20 12:24:13;;;;;;;48.38;46.35;;;;;;;;;;4902471;29;20087;-81
2021/08/20 12:26:38;;;;;;;109.32;105.30;;;;;;;;;;4906548;29;20035;-81
2021/08/20 12:29:17;;;;;;;67.75;65.25;;;;;;;;;;4952630;29;20047;-82
2021/08/20 12:31:58;;;;;;;78.97;76.03;;;;;;;;;;4942984;28;20035;-81
2021/08/20 12:34:34;;;;;;;60.70;58.47;;;;;;;;;;4904866;29;20035;-81
2021/08/20 12:37:04;;;;;;;56.25;54.17;;;;;;;;;;4911735;29;20050;-80
2021/08/20 12:39:44;;;;;;;74.70;71.90;;;;;;;;;;4932611;29;20070;-81
2021/08/20 12:42:26;;;;;;;71.28;68.53;;;;;;;;;;4920426;29;20486;-81
2021/08/20 12:45:07;;;;;;;59.03;56.88;;;;;;;;;;4936864;28;20043;-81
2021/08/20 12:47:33;;;;;;;72.13;69.53;;;;;;;;;;4952354;28;20034;-81
2021/08/20 12:50:00;;;;;;;72.13;69.63;;;;;;;;;;4921016;28;20040;-81
2021/08/20 12:52:26;;;;;;;71.53;68.95;;;;;;;;;;4921239;29;20041;-81
2021/08/20 12:54:52;;;;;;;65.10;62.83;;;;;;;;;;4952381;28;20061;-81
2021/08/20 12:57:18;;;;;;;64.68;62.38;;;;;;;;;;4951312;28;20125;-80
2021/08/20 12:59:44;;;;;;;73.38;70.53;;;;;;;;;;4952719;28;20042;-80
2021/08/20 13:02:10;;;;;;;54.17;52.28;;;;;;;;;;4936828;28;20023;-81
2021/08/20 13:04:35;;;;;;;90.35;87.22;;;;;;;;;;4936588;28;20122;-80
2021/08/20 13:07:01;;;;;;;69.35;66.47;;;;;;;;;;4952178;29;20040;-80
2021/08/20 13:09:26;;;;;;;23.33;22.30;;;;;;;;;;4932779;29;20047;-81
2021/08/20 13:11:52;;;;;;;57.78;55.58;;;;;;;;;;4947506;28;20036;-80
2021/08/20 13:14:17;;;;;;;69.53;66.55;;;;;;;;;;4963925;28;20087;-81
2021/08/20 13:16:43;;;;;;;54.83;52.60;;;;;;;;;;4917237;29;20152;-81
2021/08/20 13:19:08;;;;;;;28.48;27.33;;;;;;;;;;4948736;28;20529;-81
2021/08/20 13:21:34;;;;;;;52.30;50.08;;;;;;;;;;4933100;28;20039;-81
2021/08/20 13:24:00;;;;;;;50.28;48.30;;;;;;;;;;4948882;29;20403;-81
2021/08/20 13:26:26;;;;;;;73.28;70.47;;;;;;;;;;4916827;29;20050;-81
2021/08/20 13:28:51;;;;;;;27.13;26.08;;;;;;;;;;4953930;28;20051;-81
2021/08/20 13:31:17;;;;;;;54.50;52.50;;;;;;;;;;4933025;29;20048;-80
2021/08/20 13:33:42;;;;;;;63.67;61.28;;;;;;;;;;4933318;29;20035;-81
2021/08/20 13:36:09;;;;;;;82.97;79.88;;;;;;;;;;4933114;29;20046;-81
2021/08/20 13:38:34;;;;;;;75.70;73.03;;;;;;;;;;4933169;29;20036;-81
2021/08/20 13:41:00;;;;;;;72.35;69.60;;;;;;;;;;4949093;28;20186;-81
2021/08/20 13:43:27;;;;;;;48.25;46.53;;;;;;;;;;4960374;28;20043;-81
2021/08/20 13:45:52;;;;;;;31.90;30.60;;;;;;;;;;4917307;29;20139;-81
2021/08/20 13:48:18;;;;;;;64.95;62.60;;;;;;;;;;4920200;29;20027;-81
2021/08/20 13:50:44;;;;;;;63.45;61.13;;;;;;;;;;4920205;29;20046;-81
2021/08/20 13:53:12;;;;;;;38.90;37.40;;;;;;;;;;4904233;29;20494;-81
2021/08/20 13:55:38;;;;;;;73.05;70.53;;;;;;;;;;4905292;29;20070;-81
2021/08/20 13:58:04;;;;;;;42.50;41.00;;;;;;;;;;4904495;29;20075;-81